createdAt,value
2019-03-29T00:01:34.863Z,39.87
2019-03-29T00:04:01.902Z,43.40
2019-03-29T00:06:29.023Z,46.23
2019-03-29T00:08:56.469Z,44.47
2019-03-29T00:11:24.686Z,38.77
2019-03-29T00:19:33.788Z,45.53
2019-03-29T00:22:02.525Z,43.40
2019-03-29T00:24:29.426Z,47.93
2019-03-29T00:26:56.186Z,45.93
2019-03-29T00:29:23.968Z,59.17
2019-03-29T00:31:50.661Z,55.73
2019-03-29T00:34:17.382Z,53.63
2019-03-29T00:36:44.214Z,47.77
2019-03-29T00:39:10.720Z,54.70
2019-03-29T00:41:37.519Z,53.97
2019-03-29T00:44:04.088Z,50.00
2019-03-29T00:46:31.060Z,46.37
2019-03-29T00:48:57.599Z,47.40
2019-03-29T00:51:24.948Z,41.33
2019-03-29T00:53:51.955Z,48.07
2019-03-29T00:56:19.009Z,47.00
2019-03-29T00:58:48.744Z,43.27
2019-03-29T01:01:15.543Z,60.17
2019-03-29T01:03:42.330Z,52.30
2019-03-29T01:06:09.097Z,45.47
2019-03-29T01:08:35.615Z,51.50
2019-03-29T01:11:02.221Z,56.43
2019-03-29T01:13:28.748Z,54.93
2019-03-29T01:15:55.345Z,58.03
2019-03-29T01:18:21.990Z,51.17
2019-03-29T01:20:49.132Z,44.70
2019-03-29T01:23:15.798Z,52.03
2019-03-29T01:25:42.602Z,37.67
2019-03-29T01:28:09.380Z,47.70
2019-03-29T01:30:35.862Z,47.20
2019-03-29T01:33:02.993Z,47.00
2019-03-29T01:35:29.663Z,40.00
2019-03-29T01:37:57.033Z,47.63
2019-03-29T01:40:24.160Z,43.13
2019-03-29T01:42:52.880Z,37.60
2019-03-29T01:45:20.053Z,38.63
2019-03-29T01:47:47.071Z,36.27
2019-03-29T01:50:13.902Z,35.47
2019-03-29T01:52:40.442Z,35.57
2019-03-29T01:55:07.180Z,38.77
2019-03-29T01:57:33.903Z,28.57
2019-03-29T02:00:00.705Z,35.30
2019-03-29T02:02:27.416Z,34.97
2019-03-29T02:04:53.776Z,34.13
2019-03-29T02:07:20.185Z,30.57
2019-03-29T02:09:46.705Z,33.50
2019-03-29T02:12:25.284Z,31.90
2019-03-29T02:15:05.147Z,25.53
2019-03-29T02:17:31.753Z,35.80
2019-03-29T02:19:58.352Z,28.90
2019-03-29T02:22:25.751Z,33.20
2019-03-29T02:24:53.492Z,31.93
2019-03-29T02:27:20.885Z,31.10
2019-03-29T02:29:47.494Z,26.00
2019-03-29T02:32:14.082Z,46.43
2019-03-29T02:34:40.780Z,28.33
2019-03-29T02:37:07.169Z,25.43
2019-03-29T02:39:33.770Z,26.20
2019-03-29T02:42:00.721Z,26.43
2019-03-29T02:44:27.291Z,30.23
2019-03-29T02:46:54.208Z,25.67
2019-03-29T02:49:20.724Z,28.63
2019-03-29T02:51:47.129Z,17.40
2019-03-29T02:54:13.655Z,21.20
2019-03-29T02:56:40.346Z,24.37
2019-03-29T02:59:06.738Z,21.23
2019-03-29T03:01:33.301Z,21.93
2019-03-29T03:03:59.783Z,17.60
2019-03-29T03:06:26.219Z,26.47
2019-03-29T03:08:52.527Z,31.70
2019-03-29T03:11:19.338Z,32.17
2019-03-29T03:13:45.900Z,21.20
2019-03-29T03:16:12.626Z,15.80
2019-03-29T03:18:39.009Z,18.23
2019-03-29T03:21:05.777Z,20.67
2019-03-29T03:23:33.552Z,23.90
2019-03-29T03:26:00.151Z,15.20
2019-03-29T03:28:26.868Z,19.20
2019-03-29T03:30:53.518Z,18.50
2019-03-29T03:33:20.033Z,17.50
2019-03-29T03:35:47.562Z,29.00
2019-03-29T03:38:13.991Z,17.23
2019-03-29T03:40:40.570Z,22.30
2019-03-29T03:44:06.497Z,26.93
2019-03-29T03:46:33.408Z,25.77
2019-03-29T03:48:59.760Z,18.67
2019-03-29T03:51:26.340Z,21.83
2019-03-29T03:53:53.568Z,17.77
2019-03-29T03:56:20.464Z,31.23
2019-03-29T03:58:47.288Z,20.87
2019-03-29T04:01:13.733Z,25.00
2019-03-29T04:03:40.479Z,26.80
2019-03-29T04:06:07.498Z,24.03
2019-03-29T04:08:34.277Z,19.30
2019-03-29T04:11:00.914Z,31.07
2019-03-29T04:13:27.402Z,24.43
2019-03-29T04:15:54.247Z,17.60
2019-03-29T04:18:20.715Z,19.33
2019-03-29T04:20:47.512Z,19.67
2019-03-29T04:23:14.135Z,14.00
2019-03-29T04:25:40.772Z,18.90
2019-03-29T04:28:07.364Z,21.43
2019-03-29T04:30:33.881Z,24.80
2019-03-29T04:33:00.855Z,16.37
2019-03-29T04:35:27.606Z,20.30
2019-03-29T04:37:54.361Z,26.60
2019-03-29T04:40:20.997Z,17.43
2019-03-29T04:42:47.516Z,20.77
2019-03-29T04:45:14.460Z,15.30
2019-03-29T04:47:41.225Z,23.47
2019-03-29T04:50:08.252Z,18.20
2019-03-29T04:52:34.794Z,19.73
2019-03-29T04:55:01.838Z,15.90
2019-03-29T04:57:28.567Z,22.33
2019-03-29T04:59:55.035Z,24.67
2019-03-29T05:02:21.889Z,22.17
2019-03-29T05:04:48.395Z,15.60
2019-03-29T05:07:14.849Z,30.10
2019-03-29T05:09:41.462Z,27.00
2019-03-29T05:12:09.717Z,28.03
2019-03-29T05:14:36.222Z,26.17
2019-03-29T05:17:02.665Z,26.03
2019-03-29T05:19:29.680Z,18.57
2019-03-29T05:21:56.262Z,25.63
2019-03-29T05:24:23.023Z,25.67
2019-03-29T05:26:49.654Z,19.60
2019-03-29T05:29:16.279Z,19.30
2019-03-29T05:31:42.923Z,18.87
2019-03-29T05:34:09.475Z,27.70
2019-03-29T05:36:36.275Z,19.27
2019-03-29T05:39:04.876Z,21.63
2019-03-29T05:41:31.743Z,26.00
2019-03-29T05:43:58.314Z,25.10
2019-03-29T05:46:24.754Z,13.77
2019-03-29T05:48:51.392Z,20.77
2019-03-29T05:51:18.742Z,18.10
2019-03-29T05:53:45.313Z,22.50
2019-03-29T05:56:11.829Z,16.80
2019-03-29T05:58:38.344Z,17.20
2019-03-29T06:01:04.798Z,15.30
2019-03-29T06:03:33.348Z,17.00
2019-03-29T06:06:15.785Z,15.37
2019-03-29T06:08:42.476Z,18.13
2019-03-29T06:11:09.089Z,14.10
2019-03-29T06:13:36.259Z,15.70
2019-03-29T06:16:06.045Z,17.23
2019-03-29T06:18:31.546Z,20.33
2019-03-29T06:20:58.165Z,15.17
2019-03-29T06:23:24.613Z,20.27
2019-03-29T06:25:51.279Z,16.53
2019-03-29T06:28:21.133Z,26.33
2019-03-29T06:30:48.033Z,12.70
2019-03-29T06:33:14.720Z,16.20
2019-03-29T06:35:42.660Z,15.53
2019-03-29T06:38:11.262Z,21.10
2019-03-29T06:40:37.821Z,19.13
2019-03-29T06:43:04.427Z,21.90
2019-03-29T06:45:31.141Z,19.10
2019-03-29T06:47:57.512Z,14.97
2019-03-29T06:50:24.684Z,23.30
2019-03-29T06:52:53.306Z,15.90
2019-03-29T06:55:19.838Z,15.23
2019-03-29T06:57:47.187Z,23.33
2019-03-29T07:00:13.940Z,19.00
2019-03-29T07:02:40.624Z,23.47
2019-03-29T07:05:07.480Z,21.70
2019-03-29T07:07:34.482Z,19.40
2019-03-29T07:10:02.219Z,16.77
2019-03-29T07:12:30.624Z,17.67
2019-03-29T07:14:58.037Z,15.80
2019-03-29T07:17:24.512Z,17.13
2019-03-29T07:19:53.250Z,10.53
2019-03-29T07:22:20.518Z,15.33
2019-03-29T07:24:49.215Z,19.07
2019-03-29T07:27:25.066Z,15.00
2019-03-29T07:29:54.357Z,14.33
2019-03-29T07:32:21.220Z,18.53
2019-03-29T07:34:52.017Z,20.70
2019-03-29T07:37:18.591Z,14.60
2019-03-29T07:39:45.491Z,13.27
2019-03-29T07:42:13.279Z,14.57
2019-03-29T07:47:37.451Z,13.53
2019-03-29T07:50:06.797Z,13.73
2019-03-29T07:52:35.759Z,16.93
2019-03-29T07:55:03.603Z,21.07
2019-03-29T07:57:30.269Z,18.47
2019-03-29T08:00:00.948Z,19.10
2019-03-29T08:02:28.919Z,17.60
2019-03-29T08:04:55.878Z,17.23
2019-03-29T08:07:27.440Z,22.00
2019-03-29T08:09:51.019Z,19.90
2019-03-29T08:12:18.417Z,20.57
2019-03-29T08:14:46.868Z,17.93
2019-03-29T08:17:14.837Z,18.40
2019-03-29T08:19:41.486Z,12.00
2019-03-29T08:22:08.706Z,15.33
2019-03-29T08:24:35.429Z,17.17
2019-03-29T08:27:02.259Z,13.23
2019-03-29T08:29:31.502Z,16.60
2019-03-29T08:31:58.915Z,14.47
2019-03-29T08:34:25.825Z,16.87
2019-03-29T08:36:52.408Z,16.43
2019-03-29T08:39:27.796Z,20.07
2019-03-29T08:41:59.546Z,15.73
2019-03-29T08:44:16.036Z,20.23
2019-03-29T08:46:42.834Z,12.67
2019-03-29T08:49:09.612Z,12.90
2019-03-29T08:51:36.959Z,19.93
2019-03-29T08:54:07.708Z,16.83
2019-03-29T08:56:34.191Z,15.10
2019-03-29T08:59:01.261Z,17.43
2019-03-29T09:01:27.861Z,18.33
2019-03-29T09:04:04.620Z,16.70
2019-03-29T09:06:23.388Z,15.03
2019-03-29T09:08:50.264Z,19.40
2019-03-29T09:11:17.425Z,18.10
2019-03-29T09:13:44.379Z,20.20
2019-03-29T09:16:12.024Z,16.37
2019-03-29T09:18:38.595Z,18.60
2019-03-29T09:21:05.391Z,21.33
2019-03-29T09:23:31.950Z,21.77
2019-03-29T09:25:58.337Z,19.83
2019-03-29T09:28:25.452Z,25.47
2019-03-29T09:30:56.637Z,23.40
2019-03-29T09:33:22.810Z,20.73
2019-03-29T09:35:50.665Z,26.87
2019-03-29T09:38:22.406Z,22.30
2019-03-29T09:40:58.558Z,20.73
2019-03-29T09:43:22.418Z,25.50
2019-03-29T09:45:48.999Z,25.30
2019-03-29T09:48:15.897Z,26.27
2019-03-29T09:50:42.390Z,29.97
2019-03-29T09:53:09.154Z,26.77
2019-03-29T09:55:36.071Z,25.53
2019-03-29T09:58:03.133Z,23.30
2019-03-29T10:00:29.674Z,24.60
2019-03-29T10:02:56.579Z,22.73
2019-03-29T10:05:23.600Z,19.13
2019-03-29T10:07:51.406Z,16.03
2019-03-29T10:10:18.188Z,20.27
2019-03-29T10:12:44.662Z,16.17
2019-03-29T10:15:11.931Z,19.97
2019-03-29T10:17:38.550Z,19.10
2019-03-29T10:20:06.057Z,26.07
2019-03-29T10:22:32.714Z,21.97
2019-03-29T10:25:01.826Z,23.30
2019-03-29T10:27:27.598Z,25.67
2019-03-29T10:29:57.190Z,22.40
2019-03-29T10:32:23.774Z,23.40
2019-03-29T10:34:51.531Z,19.40
2019-03-29T10:37:25.793Z,23.57
2019-03-29T10:39:54.482Z,24.80
2019-03-29T10:42:21.677Z,25.03
2019-03-29T10:44:49.562Z,24.97
2019-03-29T10:47:16.666Z,21.53
2019-03-29T10:49:43.137Z,21.03
2019-03-29T10:52:09.553Z,21.67
2019-03-29T10:54:36.215Z,23.47
2019-03-29T10:57:03.725Z,21.10
2019-03-29T10:59:31.004Z,18.30
2019-03-29T11:01:57.581Z,25.80
2019-03-29T11:04:24.761Z,22.40
2019-03-29T11:06:51.819Z,20.80
2019-03-29T11:09:21.233Z,21.47
2019-03-29T11:11:49.898Z,26.23
2019-03-29T11:14:17.942Z,20.10
2019-03-29T11:16:45.177Z,20.90
2019-03-29T11:19:12.233Z,25.73
2019-03-29T11:21:41.169Z,19.83
2019-03-29T11:24:09.374Z,19.63
2019-03-29T11:26:39.440Z,21.10
2019-03-29T11:29:06.066Z,19.63
2019-03-29T11:31:33.577Z,22.57
2019-03-29T11:34:01.379Z,19.20
2019-03-29T11:36:40.627Z,23.37
2019-03-29T11:39:08.572Z,21.77
2019-03-29T11:41:45.242Z,26.37
2019-03-29T11:44:13.908Z,21.47
2019-03-29T11:46:45.374Z,26.47
2019-03-29T11:49:12.231Z,21.80
2019-03-29T11:51:38.684Z,29.33
2019-03-29T11:54:05.264Z,24.03
2019-03-29T11:56:32.155Z,28.33
2019-03-29T11:58:59.073Z,24.93
2019-03-29T12:01:25.584Z,26.80
2019-03-29T12:03:52.269Z,28.77
2019-03-29T12:06:18.847Z,29.47
2019-03-29T12:09:06.447Z,38.80
2019-03-29T12:11:35.104Z,22.70
2019-03-29T12:14:05.004Z,32.40
2019-03-29T12:16:31.591Z,32.53
2019-03-29T12:18:58.258Z,31.83
2019-03-29T12:21:25.311Z,31.10
2019-03-29T12:23:52.188Z,30.40
2019-03-29T12:26:19.685Z,33.30
2019-03-29T12:28:46.482Z,32.57
2019-03-29T12:31:17.330Z,34.20
2019-03-29T12:33:45.985Z,29.57
2019-03-29T12:36:12.396Z,32.83
2019-03-29T12:38:39.781Z,33.73
2019-03-29T12:41:11.818Z,32.10
2019-03-29T12:43:54.492Z,36.70
2019-03-29T12:46:08.959Z,39.30
2019-03-29T12:48:35.803Z,32.20
2019-03-29T12:51:02.336Z,35.40
2019-03-29T12:53:28.910Z,28.40
2019-03-29T12:55:59.348Z,38.93
2019-03-29T12:58:26.041Z,34.63
2019-03-29T13:00:53.054Z,31.37
2019-03-29T13:03:19.823Z,33.20
2019-03-29T13:05:46.489Z,31.53
2019-03-29T13:08:13.454Z,31.63
2019-03-29T13:10:42.496Z,34.13
2019-03-29T13:13:08.558Z,30.50
2019-03-29T13:15:35.891Z,38.37
2019-03-29T13:18:02.788Z,31.10
2019-03-29T13:20:29.359Z,29.93
2019-03-29T13:22:56.034Z,31.43
2019-03-29T13:25:23.766Z,32.10
2019-03-29T13:27:50.557Z,36.40
2019-03-29T13:30:18.049Z,30.00
2019-03-29T13:32:46.825Z,29.53
2019-03-29T13:35:13.775Z,30.73
2019-03-29T13:37:40.373Z,34.90
2019-03-29T13:40:07.528Z,30.13
2019-03-29T13:42:34.231Z,31.10
2019-03-29T13:45:01.023Z,31.27
2019-03-29T13:47:27.577Z,37.83
2019-03-29T13:49:54.614Z,31.00
2019-03-29T13:52:21.794Z,32.67
2019-03-29T13:54:48.299Z,28.10
2019-03-29T13:57:14.890Z,25.67
2019-03-29T13:59:41.388Z,30.53
2019-03-29T14:02:08.280Z,28.63
2019-03-29T14:04:35.310Z,19.93
2019-03-29T14:07:03.403Z,31.93
2019-03-29T14:09:30.230Z,29.63
2019-03-29T14:11:58.420Z,26.57
2019-03-29T14:14:37.703Z,33.10
2019-03-29T14:16:54.287Z,25.87
2019-03-29T14:19:21.954Z,26.20
2019-03-29T14:21:48.591Z,25.73
2019-03-29T14:24:15.173Z,26.90
2019-03-29T14:26:43.095Z,27.50
2019-03-29T14:29:10.706Z,29.57
2019-03-29T14:31:37.794Z,29.93
2019-03-29T14:34:04.420Z,29.50
2019-03-29T14:36:31.304Z,29.17
2019-03-29T14:38:57.975Z,28.83
2019-03-29T14:41:26.440Z,26.40
2019-03-29T14:43:53.770Z,28.97
2019-03-29T14:46:20.280Z,30.83
2019-03-29T14:48:46.940Z,28.30
2019-03-29T14:51:13.679Z,30.93
2019-03-29T14:53:40.355Z,28.97
2019-03-29T14:56:07.027Z,31.03
2019-03-29T14:58:33.861Z,30.40
2019-03-29T15:01:00.387Z,33.93
2019-03-29T15:03:27.021Z,27.60
2019-03-29T15:05:53.846Z,32.93
2019-03-29T15:08:20.580Z,27.20
2019-03-29T15:10:47.742Z,26.20
2019-03-29T15:13:15.606Z,26.70
2019-03-29T15:15:42.605Z,31.87
2019-03-29T15:18:09.355Z,29.10
2019-03-29T15:20:35.740Z,33.53
2019-03-29T15:23:02.645Z,29.33
2019-03-29T15:25:29.136Z,28.57
2019-03-29T15:27:55.800Z,33.47
2019-03-29T15:30:22.475Z,28.60
2019-03-29T15:32:49.715Z,33.70
2019-03-29T15:35:20.915Z,31.50
2019-03-29T15:37:47.757Z,32.13
2019-03-29T15:40:14.583Z,35.00
2019-03-29T15:42:41.145Z,27.00
2019-03-29T15:45:19.585Z,39.70
2019-03-29T15:47:40.398Z,35.13
2019-03-29T15:50:09.578Z,37.47
2019-03-29T15:52:37.984Z,35.90
2019-03-29T15:55:05.730Z,35.93
2019-03-29T15:57:36.930Z,31.47
2019-03-29T16:00:09.705Z,33.90
2019-03-29T16:02:36.210Z,33.33
2019-03-29T16:05:04.860Z,30.90
2019-03-29T16:07:34.796Z,33.27
2019-03-29T16:10:00.836Z,34.70
2019-03-29T16:12:28.279Z,34.27
2019-03-29T16:14:54.995Z,32.87
2019-03-29T16:17:22.915Z,30.13
2019-03-29T16:19:50.189Z,34.53
2019-03-29T16:22:17.720Z,35.33
2019-03-29T16:24:45.812Z,38.40
2019-03-29T16:27:13.796Z,33.23
2019-03-29T16:29:40.744Z,39.37
2019-03-29T16:32:07.543Z,36.37
2019-03-29T16:34:35.155Z,41.20
2019-03-29T16:37:02.213Z,32.70
2019-03-29T16:39:29.024Z,34.90
2019-03-29T16:41:56.484Z,29.87
2019-03-29T16:44:24.297Z,34.20
2019-03-29T16:46:52.142Z,32.80
2019-03-29T16:49:18.762Z,34.60
2019-03-29T16:51:45.347Z,36.70
2019-03-29T16:54:12.312Z,32.47
2019-03-29T16:56:43.970Z,29.17
2019-03-29T16:59:10.975Z,32.60
2019-03-29T17:01:38.285Z,38.70
2019-03-29T17:04:04.942Z,32.40
2019-03-29T17:06:31.464Z,32.93
2019-03-29T17:08:59.510Z,33.43
2019-03-29T17:11:29.724Z,38.17
2019-03-29T17:13:56.368Z,35.03
2019-03-29T17:16:30.208Z,33.70
2019-03-29T17:21:41.007Z,36.97
2019-03-29T17:24:07.904Z,30.67
2019-03-29T17:26:34.420Z,33.27
2019-03-29T17:29:03.285Z,33.93
2019-03-29T17:31:35.042Z,37.03
2019-03-29T17:34:01.860Z,36.40
2019-03-29T17:36:30.206Z,32.80
2019-03-29T17:39:00.613Z,38.00
2019-03-29T17:41:27.682Z,38.30
2019-03-29T17:43:54.705Z,32.20
2019-03-29T17:46:21.619Z,48.33
2019-03-29T17:48:48.243Z,38.60
2019-03-29T17:54:07.072Z,34.50
2019-03-29T17:56:38.318Z,38.00
2019-03-29T17:59:06.777Z,35.70
2019-03-29T18:01:34.496Z,32.77
2019-03-29T18:04:03.263Z,40.17
2019-03-29T18:06:31.720Z,33.87
2019-03-29T18:09:00.700Z,38.50
2019-03-29T18:17:08.720Z,43.17
2019-03-29T18:19:38.847Z,42.13
2019-03-29T18:22:06.326Z,43.30
2019-03-29T18:24:34.030Z,55.80
2019-03-29T18:27:02.523Z,50.37
2019-03-29T18:29:29.924Z,43.43
2019-03-29T18:31:57.594Z,47.63
2019-03-29T18:34:25.348Z,42.37
2019-03-29T18:36:53.963Z,51.90
2019-03-29T18:42:09.516Z,40.10
2019-03-29T18:44:38.362Z,52.40
2019-03-29T18:47:06.142Z,47.20
2019-03-29T18:49:33.660Z,47.33
2019-03-29T18:52:02.109Z,45.43
2019-03-29T18:54:29.936Z,48.10
2019-03-29T18:57:15.514Z,49.17
2019-03-29T19:02:28.810Z,56.73
2019-03-29T19:04:56.101Z,46.50
2019-03-29T19:07:27.279Z,49.10
2019-03-29T19:09:56.079Z,56.50
2019-03-29T19:12:23.043Z,54.53
2019-03-29T19:14:51.259Z,58.60
2019-03-29T19:17:17.863Z,60.33
2019-03-29T19:19:45.304Z,53.60
2019-03-29T19:22:16.223Z,50.97
2019-03-29T19:24:51.126Z,53.93
2019-03-29T19:27:19.629Z,52.97
2019-03-29T19:29:48.705Z,57.40
2019-03-29T19:32:15.337Z,59.00
2019-03-29T19:37:31.419Z,62.10
2019-03-29T19:40:11.520Z,64.93
2019-03-29T19:42:41.811Z,70.10
2019-03-29T19:50:51.805Z,64.50
2019-03-29T19:53:18.551Z,80.60
2019-03-29T19:55:46.377Z,70.37
2019-03-29T20:01:03.845Z,71.50
2019-03-29T20:03:31.209Z,75.77
2019-03-29T20:06:03.574Z,66.73
2019-03-29T20:11:41.491Z,76.00
2019-03-29T20:14:11.580Z,63.93
2019-03-29T20:19:32.375Z,64.07
2019-03-29T20:21:59.385Z,69.13
2019-03-29T20:24:25.974Z,71.47
2019-03-29T20:26:53.445Z,72.40
2019-03-29T20:29:20.135Z,73.10
2019-03-29T20:31:50.008Z,63.90
2019-03-29T20:34:16.128Z,66.93
2019-03-29T20:36:45.239Z,72.77
2019-03-29T20:39:11.871Z,72.23
2019-03-29T20:41:39.594Z,71.73
2019-03-29T20:44:07.168Z,77.43
2019-03-29T20:46:34.084Z,68.20
2019-03-29T20:49:01.594Z,66.37
2019-03-29T20:51:28.235Z,68.50
2019-03-29T20:53:55.002Z,77.23
2019-03-29T20:56:23.340Z,75.40
2019-03-29T20:58:50.030Z,74.67
2019-03-29T21:01:17.413Z,81.77
2019-03-29T21:03:44.917Z,79.77
2019-03-29T21:06:12.417Z,77.30
2019-03-29T21:08:39.300Z,106.97
2019-03-29T21:11:23.683Z,116.10
2019-03-29T21:13:55.925Z,116.27
2019-03-29T21:16:23.031Z,116.07
2019-03-29T21:18:50.285Z,109.70
2019-03-29T21:21:24.661Z,105.60
2019-03-29T21:23:52.347Z,99.03
2019-03-29T21:26:20.534Z,98.43
2019-03-29T21:28:52.626Z,103.90
2019-03-29T21:31:18.574Z,101.37
2019-03-29T21:33:46.268Z,102.70
2019-03-29T21:36:13.419Z,101.93
2019-03-29T21:38:40.326Z,113.37
2019-03-29T21:41:07.661Z,107.40
2019-03-29T21:43:35.145Z,105.00
2019-03-29T21:46:02.265Z,109.77
2019-03-29T21:48:29.433Z,107.57
2019-03-29T21:50:57.588Z,107.80
2019-03-29T21:53:24.171Z,101.60
2019-03-29T21:55:50.940Z,103.27
2019-03-29T21:58:18.277Z,107.13
2019-03-29T22:00:46.890Z,111.83
2019-03-29T22:03:13.692Z,98.43
2019-03-29T22:05:42.043Z,97.00
2019-03-29T22:08:08.748Z,105.70
2019-03-29T22:10:37.410Z,100.13
2019-03-29T22:13:09.471Z,100.60
2019-03-29T22:15:36.470Z,103.47
2019-03-29T22:18:06.675Z,107.67
2019-03-29T22:20:31.937Z,107.77
2019-03-29T22:22:59.095Z,106.37
2019-03-29T22:25:25.816Z,105.33
2019-03-29T22:27:53.255Z,93.70
2019-03-29T22:30:36.145Z,92.20
2019-03-29T22:33:04.156Z,112.97
2019-03-29T22:35:31.382Z,99.43
2019-03-29T22:37:58.062Z,100.43
2019-03-29T22:40:25.238Z,97.17
2019-03-29T22:42:52.185Z,95.07
2019-03-29T22:45:19.276Z,101.70
2019-03-29T22:47:45.787Z,99.60
2019-03-29T22:50:13.625Z,90.80
2019-03-29T22:52:40.114Z,96.63
2019-03-29T22:55:07.216Z,96.27
2019-03-29T22:57:34.678Z,96.00
2019-03-29T23:00:01.622Z,84.00
2019-03-29T23:02:28.243Z,101.90
2019-03-29T23:04:55.266Z,105.30
2019-03-29T23:07:21.825Z,89.93
2019-03-29T23:09:48.425Z,94.37
2019-03-29T23:12:15.019Z,92.27
2019-03-29T23:14:41.654Z,87.87
2019-03-29T23:17:09.536Z,100.87
2019-03-29T23:19:39.747Z,102.10
2019-03-29T23:22:10.591Z,91.70
2019-03-29T23:24:37.190Z,95.97
2019-03-29T23:27:04.211Z,89.80
2019-03-29T23:29:30.857Z,93.37
2019-03-29T23:31:59.188Z,91.10
2019-03-29T23:34:26.807Z,80.33
2019-03-29T23:36:54.559Z,85.63
2019-03-29T23:39:21.351Z,94.80
2019-03-29T23:41:48.034Z,87.57
2019-03-29T23:44:15.279Z,95.03
2019-03-29T23:46:42.035Z,89.23
2019-03-29T23:49:20.439Z,90.90
2019-03-29T23:51:38.149Z,85.70
2019-03-29T23:54:04.655Z,93.40
2019-03-29T23:56:31.305Z,95.47
2019-03-29T23:58:58.441Z,102.30
